Metaline, Washington
Current Conditions -  °F | °C
As of 8:00 AM on Saturday 25 Oct 2014 (Local Time) from CYCG Reporting Station
Broken Clouds Broken Clouds  
Wind Chill: 39°   Ceiling: 9000
Heat Index: 43°   Visibility: 15mi
Dew Point: 41°   Wind: 6mph
Humidity: 93%   Direction: 30°NNE
Pressure: 29.8"   Gusts: NA
Location:  48.85°N, 117.39°W
Report Text: CYCG 251500Z 03005KT 330V040 15SM FEW020 BKN090 06/05 A2980 RMK SF2AC5 SLP101
Loading
Personal Weather Stations






























Interactive Weather Map
Tropical Storm Tracking
New forecast layout! Learn more

10-Day Weather Forecast

Advertisements
Track Severe Weather on mobile